Airfield :
LOGIN :

Register | Disclaimer

   EN    FR    IT 

 










Legend :    VFR   Marginal VFR   IFR   Intensive IFR   Very Intensive IFR
Visi :
Ceiling :
>= 8 km
>= 3000ft
5 to 8 km
1000 to 3000 ft
1500m to 5 km
500 to 1000 ft
800 to 1500m
200 to 500 ft
< 800m
< 200 ft
Symbols :   Thunderstorms  Fog  Heavy snow  Heavy precipitations  Wind > 20 kt
SIGMETs :     Misc.  Thunderstorms  Icing  Turbulence  Mountain Waves  Volcanic Ashes






- Airport Elevation : 49 ft
- IATA code : GLZ


EHGR - Gilze-Rijen Airbase

CURRENT METAR :
  • 080325Z AUTO 21015KT 160V260 9999 BKN019 OVC023 10/06 Q1005 WHT

EXPIRED METARs :
  • 080255Z AUTO 22013G25KT 190V260 9999 OVC021 10/06 Q1006 WHT
  • 080225Z AUTO 21015G28KT 170V260 9999 OVC019 10/06 Q1007 WHT
  • 080155Z AUTO 21014G26KT 160V270 9999 BKN022 OVC025 10/06 Q1007 WHT
  • 080134Z AUTO 21014G24KT 180V260 9999 OVC024 10/05 Q1008 WHT
  • 080125Z AUTO 21014G24KT 170V250 9999 SCT025 OVC028 10/05 Q1008 BLU
  • 080055Z AUTO 21012G22KT 170V250 9999 FEW023 BKN032 BKN260 09/06 Q1009 BLU

Expired Forecast.



MET'MAP, your aeronautical weather chart ! - Copyright ORBIFLY December 2007 - Disclaimer

ORBIFLY MET'MAP TEAM :

Programming & Development : Alexandra Zaïnal
Concept & original design : Baudouin d'Aumeries
Assistance for programming : Marc-Olivier Méhu
Technical & hardware support : Manuel Goepfert

Contact : metmap@orbifly.com




SOURCES & CREDITS :

   NOAA